Time;durP1;ratioP1;P1;durP2;ratioP2;P2;SDS_P1;SDS_P2;PMS_P1;PMS_P2;Temp;Humidity;BMP_temperature;BMP_pressure;BME280_temperature;BME280_humidity;BME280_pressure;Samples;Min_cycle;Max_cycle;Signal;HPM_P1;HPM_P2
2022/01/08 00:02:10;;;;;;;;;;;1.90;99.90;;;;;;5094216;28;20238;-47
2022/01/08 00:04:36;;;;;;;;;;;1.90;99.90;;;;;;5076259;28;19989;-45
2022/01/08 00:07:01;;;;;;;;;;;1.80;99.90;;;;;;5094457;28;19904;-46
2022/01/08 00:09:27;;;;;;;;;;;1.80;99.90;;;;;;5076156;28;20357;-46
2022/01/08 00:11:52;;;;;;;;;;;1.70;99.90;;;;;;5094144;28;19923;-48
2022/01/08 00:14:21;;;;;;;;;;;1.90;99.90;;;;;;5094042;28;19987;-45
2022/01/08 00:16:47;;;;;;;;;;;1.70;99.90;;;;;;5094369;28;19904;-45
2022/01/08 00:19:12;;;;;;;;;;;1.80;99.90;;;;;;5094287;28;19904;-47
2022/01/08 00:21:38;;;;;;;;;;;1.80;99.90;;;;;;5093917;28;19908;-46
2022/01/08 00:24:03;;;;;;;;;;;1.80;99.90;;;;;;5094326;28;19908;-46
2022/01/08 00:26:29;;;;;;;;;;;1.80;99.90;;;;;;5094403;28;20287;-51
2022/01/08 00:28:54;;;;;;;;;;;1.80;99.90;;;;;;5093977;28;19915;-50
2022/01/08 00:31:20;;;;;;;;;;;1.70;99.90;;;;;;5072410;28;19924;-50
2022/01/08 00:33:47;;;;;;;;;;;1.70;99.90;;;;;;5073723;28;19936;-53
2022/01/08 00:36:12;;;;;;;;;;;1.70;99.90;;;;;;5074283;28;19944;-46
2022/01/08 00:38:38;;;;;;;;;;;1.60;99.90;;;;;;5074028;28;20262;-46
2022/01/08 00:41:03;;;;;;;;;;;1.60;99.90;;;;;;5073954;28;19908;-48
2022/01/08 00:43:29;;;;;;;;;;;1.50;99.90;;;;;;5074025;28;19947;-47
2022/01/08 00:45:54;;;;;;;;;;;1.50;99.90;;;;;;5074234;28;20223;-49
2022/01/08 00:48:20;;;;;;;;;;;1.50;99.90;;;;;;5073762;28;19912;-47
2022/01/08 00:50:45;;;;;;;;;;;1.50;99.90;;;;;;5073946;28;19908;-47
2022/01/08 00:53:11;;;;;;;;;;;1.50;99.90;;;;;;5073625;28;19909;-48
2022/01/08 00:55:36;;;;;;;;;;;1.50;99.90;;;;;;5073729;28;20346;-51
2022/01/08 00:58:02;;;;;;;;;;;1.60;99.90;;;;;;5072574;28;20231;-48
2022/01/08 01:00:28;;;;;;;;;;;1.50;99.90;;;;;;5073756;28;19950;-46
2022/01/08 01:02:53;;;;;;;;;;;1.60;99.90;;;;;;5074582;28;19909;-46
2022/01/08 01:05:19;;;;;;;;;;;1.60;99.90;;;;;;5077470;28;19904;-50
2022/01/08 01:07:45;;;;;;;;;;;1.50;99.90;;;;;;5077837;28;20318;-47
2022/01/08 01:10:10;;;;;;;;;;;1.50;99.90;;;;;;5076421;28;19905;-48
2022/01/08 01:12:36;;;;;;;;;;;1.50;99.90;;;;;;5077725;28;19926;-45
2022/01/08 01:15:03;;;;;;;;;;;1.40;99.90;;;;;;5077720;28;19928;-45
2022/01/08 01:17:28;;;;;;;;;;;1.40;99.90;;;;;;5077574;28;19904;-48
2022/01/08 01:19:54;;;;;;;;;;;1.30;99.90;;;;;;5077560;28;20377;-48
2022/01/08 01:22:23;;;;;;;;;;;1.20;99.90;;;;;;5077448;28;19908;-47
2022/01/08 01:24:50;;;;;;;;;;;1.20;99.90;;;;;;5077394;28;19913;-45
2022/01/08 01:48:50;;;;;;;;;;;0.80;99.90;;;;;;5096938;28;19957;-46
2022/01/08 01:51:19;;;;;;;;;;;0.80;99.90;;;;;;5097022;28;20547;-45
2022/01/08 01:53:45;;;;;;;;;;;0.70;99.90;;;;;;5097037;28;19955;-50
2022/01/08 01:56:10;;;;;;;;;;;0.70;99.90;;;;;;5096630;28;19911;-51
2022/01/08 01:58:36;;;;;;;;;;;0.70;99.90;;;;;;5096840;28;19954;-46
2022/01/08 02:01:02;;;;;;;;;;;0.70;99.90;;;;;;5097104;28;19960;-47
2022/01/08 02:03:27;;;;;;;;;;;0.70;99.90;;;;;;5096886;28;20249;-49
2022/01/08 02:05:53;;;;;;;;;;;0.70;99.90;;;;;;5096617;28;20004;-49
2022/01/08 02:08:18;;;;;;;;;;;0.70;99.90;;;;;;5096747;28;20038;-45
2022/01/08 02:10:44;;;;;;;;;;;0.80;99.90;;;;;;5096493;28;20475;-46
2022/01/08 02:13:09;;;;;;;;;;;0.70;99.90;;;;;;5096355;28;19904;-48
2022/01/08 02:15:36;;;;;;;;;;;0.70;99.90;;;;;;5096201;28;19954;-45
2022/01/08 02:18:02;;;;;;;;;;;0.70;99.90;;;;;;5096944;28;19932;-46
2022/01/08 02:20:27;;;;;;;;;;;0.70;99.90;;;;;;5096356;28;19911;-49
2022/01/08 02:22:53;;;;;;;;;;;0.60;99.90;;;;;;5096741;28;19908;-48
2022/01/08 02:25:22;;;;;;;;;;;0.60;99.90;;;;;;5096597;28;20377;-46
2022/01/08 02:27:47;;;;;;;;;;;0.60;99.90;;;;;;5096912;28;19908;-46
2022/01/08 02:30:13;;;;;;;;;;;0.60;99.90;;;;;;5078087;28;19916;-45
2022/01/08 02:32:41;;;;;;;;;;;0.60;99.90;;;;;;5096041;28;19904;-48
2022/01/08 02:35:07;;;;;;;;;;;0.60;99.90;;;;;;5095934;28;19904;-51
2022/01/08 02:37:34;;;;;;;;;;;0.60;99.90;;;;;;5096526;28;20245;-53
2022/01/08 02:40:01;;;;;;;;;;;0.60;99.90;;;;;;5096086;28;19911;-47
2022/01/08 02:42:36;;;;;;;;;;;0.50;99.90;;;;;;5096197;28;19908;-46
2022/01/08 02:45:02;;;;;;;;;;;0.50;99.90;;;;;;5096323;28;19912;-46
2022/01/08 02:47:27;;;;;;;;;;;0.30;99.90;;;;;;5077958;28;20226;-46
2022/01/08 02:49:53;;;;;;;;;;;0.30;99.90;;;;;;5096152;28;19904;-47
2022/01/08 02:52:19;;;;;;;;;;;0.30;99.90;;;;;;5095741;28;19957;-48
2022/01/08 02:54:45;;;;;;;;;;;0.20;99.90;;;;;;5096013;28;19908;-50
2022/01/08 02:57:10;;;;;;;;;;;0.20;99.90;;;;;;5095598;28;20003;-46
2022/01/08 02:59:36;;;;;;;;;;;0.20;99.90;;;;;;5095908;28;20333;-50
2022/01/08 03:02:01;;;;;;;;;;;0.30;99.90;;;;;;5095600;28;20029;-45
2022/01/08 03:04:27;;;;;;;;;;;0.30;99.90;;;;;;5095858;28;19908;-46
2022/01/08 03:06:52;;;;;;;;;;;0.30;99.90;;;;;;5095766;28;19904;-47
2022/01/08 03:09:18;;;;;;;;;;;0.30;99.90;;;;;;5095365;28;19911;-46
2022/01/08 03:11:43;;;;;;;;;;;0.30;99.90;;;;;;5096045;28;19904;-49
2022/01/08 03:14:09;;;;;;;;;;;0.30;99.90;;;;;;5095390;28;20292;-47
2022/01/08 03:16:35;;;;;;;;;;;0.30;99.90;;;;;;5095565;28;19908;-48
2022/01/08 03:19:08;;;;;;;;;;;0.20;99.90;;;;;;5095339;28;19904;-47
2022/01/08 03:21:36;;;;;;;;;;;0.10;99.90;;;;;;5095473;28;19908;-45
2022/01/08 03:24:03;;;;;;;;;;;0.10;99.90;;;;;;5095103;28;19996;-49
2022/01/08 03:26:29;;;;;;;;;;;0.10;99.90;;;;;;5094306;28;19963;-46
2022/01/08 03:28:55;;;;;;;;;;;0.10;99.90;;;;;;5095326;28;19954;-46
2022/01/08 03:31:21;;;;;;;;;;;0.10;99.90;;;;;;5094787;28;19916;-46
2022/01/08 03:33:47;;;;;;;;;;;0.00;99.90;;;;;;5095183;28;19911;-48
2022/01/08 03:36:13;;;;;;;;;;;0.00;99.90;;;;;;5094866;28;19904;-45
2022/01/08 03:38:39;;;;;;;;;;;0.00;99.90;;;;;;5094841;28;19911;-49
2022/01/08 03:41:05;;;;;;;;;;;0.00;99.90;;;;;;5095018;28;20257;-48
2022/01/08 03:43:30;;;;;;;;;;;0.00;99.90;;;;;;5095050;28;19908;-49
2022/01/08 03:45:56;;;;;;;;;;;0.00;99.90;;;;;;5095057;28;20379;-47
2022/01/08 03:48:31;;;;;;;;;;;0.00;99.90;;;;;;5094996;28;19995;-48
2022/01/08 03:50:57;;;;;;;;;;;0.10;99.90;;;;;;5094787;28;20237;-46
2022/01/08 03:53:23;;;;;;;;;;;-0.10;99.90;;;;;;5094569;28;19991;-45
2022/01/08 03:55:49;;;;;;;;;;;0.00;99.90;;;;;;5076681;28;19911;-49
2022/01/08 03:58:14;;;;;;;;;;;0.10;99.90;;;;;;5094779;28;19908;-49
2022/01/08 04:00:40;;;;;;;;;;;0.10;99.90;;;;;;5094077;28;19912;-45
2022/01/08 04:03:06;;;;;;;;;;;0.10;99.90;;;;;;5094265;28;19943;-46
2022/01/08 04:05:31;;;;;;;;;;;0.10;99.90;;;;;;5094731;28;19904;-44
2022/01/08 04:07:57;;;;;;;;;;;0.10;99.90;;;;;;5094264;28;19905;-47
2022/01/08 04:10:22;;;;;;;;;;;0.10;99.90;;;;;;5094792;28;19911;-45
2022/01/08 04:13:03;;;;;;;;;;;0.20;99.90;;;;;;5093652;28;19908;-47
2022/01/08 04:17:54;;;;;;;;;;;0.30;99.90;;;;;;5093200;28;19908;-47
2022/01/08 04:20:21;;;;;;;;;;;0.10;99.90;;;;;;5092673;28;20230;-49
2022/01/08 04:22:50;;;;;;;;;;;0.10;99.90;;;;;;5089029;28;19908;-47
2022/01/08 04:25:17;;;;;;;;;;;0.20;99.90;;;;;;5092927;28;19904;-47
2022/01/08 04:27:42;;;;;;;;;;;0.20;99.90;;;;;;5092824;28;19970;-48
2022/01/08 04:30:08;;;;;;;;;;;0.20;99.90;;;;;;5092676;28;20354;-49
2022/01/08 04:32:34;;;;;;;;;;;0.10;99.90;;;;;;5090294;28;19921;-48
2022/01/08 04:34:59;;;;;;;;;;;0.10;99.90;;;;;;5092562;28;19908;-49
2022/01/08 04:37:25;;;;;;;;;;;0.30;99.90;;;;;;5092542;28;19908;-51
2022/01/08 04:39:51;;;;;;;;;;;0.30;99.90;;;;;;5091473;28;19912;-46
2022/01/08 04:42:17;;;;;;;;;;;0.20;99.90;;;;;;5092659;28;19920;-45
2022/01/08 04:44:43;;;;;;;;;;;0.20;99.90;;;;;;5092823;28;19912;-50
2022/01/08 04:47:08;;;;;;;;;;;0.10;99.90;;;;;;5092680;28;19916;-46
2022/01/08 04:49:34;;;;;;;;;;;0.30;99.90;;;;;;5092371;28;19919;-51
2022/01/08 04:52:00;;;;;;;;;;;0.30;99.90;;;;;;5089742;28;19951;-49
2022/01/08 04:54:25;;;;;;;;;;;0.40;99.90;;;;;;5092291;28;19951;-49
2022/01/08 04:56:51;;;;;;;;;;;0.40;99.90;;;;;;5092598;28;19915;-50
2022/01/08 04:59:16;;;;;;;;;;;0.50;99.90;;;;;;5092780;28;19919;-47
2022/01/08 05:01:42;;;;;;;;;;;0.50;99.90;;;;;;5092581;28;19912;-46
2022/01/08 05:04:08;;;;;;;;;;;0.60;99.90;;;;;;5092151;28;19935;-49
2022/01/08 05:06:33;;;;;;;;;;;0.50;99.90;;;;;;5092440;28;19949;-47
2022/01/08 05:08:59;;;;;;;;;;;0.40;99.90;;;;;;5092197;28;19908;-47
2022/01/08 05:11:27;;;;;;;;;;;0.50;99.90;;;;;;5092722;28;19951;-47
2022/01/08 05:13:53;;;;;;;;;;;0.50;99.90;;;;;;5076426;28;20019;-47
2022/01/08 05:16:19;;;;;;;;;;;0.60;99.90;;;;;;5092900;28;19950;-47
2022/01/08 05:18:44;;;;;;;;;;;0.80;99.90;;;;;;5075834;28;20358;-49
2022/01/08 05:21:21;;;;;;;;;;;0.90;99.90;;;;;;5093014;28;20003;-48
2022/01/08 05:23:47;;;;;;;;;;;1.00;99.90;;;;;;5055699;28;19912;-47
2022/01/08 05:26:13;;;;;;;;;;;1.10;99.90;;;;;;5073268;28;19908;-48
2022/01/08 05:28:39;;;;;;;;;;;1.20;99.90;;;;;;5079771;28;19946;-48
2022/01/08 05:31:04;;;;;;;;;;;1.20;99.90;;;;;;5093805;28;19931;-48
2022/01/08 05:33:30;;;;;;;;;;;1.30;99.90;;;;;;5093207;28;19931;-47
2022/01/08 05:35:55;;;;;;;;;;;1.50;99.90;;;;;;5093619;28;19915;-47
2022/01/08 05:38:21;;;;;;;;;;;1.50;99.90;;;;;;5092989;28;20266;-45
2022/01/08 05:40:46;;;;;;;;;;;1.50;99.90;;;;;;5093390;28;19912;-50
2022/01/08 05:43:12;;;;;;;;;;;1.60;99.90;;;;;;5093088;28;19912;-49
2022/01/08 05:45:37;;;;;;;;;;;1.70;99.90;;;;;;5093584;28;19912;-45
2022/01/08 05:48:04;;;;;;;;;;;1.70;99.90;;;;;;5092912;28;20006;-48
2022/01/08 05:50:29;;;;;;;;;;;1.70;99.90;;;;;;5096708;28;19912;-45
2022/01/08 05:52:55;;;;;;;;;;;1.80;99.90;;;;;;5096904;28;20363;-45
2022/01/08 05:55:20;;;;;;;;;;;1.80;99.90;;;;;;5097007;28;19908;-46
2022/01/08 05:57:46;;;;;;;;;;;1.80;99.90;;;;;;5094036;28;19912;-45
2022/01/08 06:00:11;;;;;;;;;;;1.80;99.90;;;;;;5076406;28;19915;-46
2022/01/08 06:02:37;;;;;;;;;;;1.80;99.90;;;;;;5091459;28;19916;-49
2022/01/08 06:05:03;;;;;;;;;;;1.80;99.90;;;;;;5096801;28;19943;-46
2022/01/08 06:07:29;;;;;;;;;;;1.70;99.90;;;;;;5096389;28;19914;-46
2022/01/08 06:09:54;;;;;;;;;;;1.80;99.90;;;;;;5096600;28;19943;-47
2022/01/08 06:12:20;;;;;;;;;;;2.00;99.90;;;;;;5096644;28;20006;-46
2022/01/08 06:14:45;;;;;;;;;;;2.00;99.90;;;;;;5088163;28;20346;-45
2022/01/08 06:17:11;;;;;;;;;;;2.00;99.90;;;;;;5076410;28;19908;-45
2022/01/08 06:19:37;;;;;;;;;;;1.90;99.90;;;;;;5076066;28;19908;-45
2022/01/08 06:22:02;;;;;;;;;;;2.00;99.90;;;;;;5076326;28;20246;-46
2022/01/08 06:24:28;;;;;;;;;;;2.00;99.90;;;;;;5076006;28;19919;-48
2022/01/08 06:26:53;;;;;;;;;;;2.00;99.90;;;;;;5089542;28;20004;-48
2022/01/08 06:29:19;;;;;;;;;;;2.10;99.90;;;;;;5095240;28;20340;-45
2022/01/08 06:31:45;;;;;;;;;;;2.10;99.90;;;;;;5095925;28;19924;-46
2022/01/08 06:34:10;;;;;;;;;;;2.00;99.90;;;;;;5095985;28;19912;-50
2022/01/08 06:36:36;;;;;;;;;;;2.00;99.90;;;;;;5095846;28;19909;-47
2022/01/08 06:39:02;;;;;;;;;;;1.90;99.90;;;;;;5077704;28;19948;-47
2022/01/08 06:41:29;;;;;;;;;;;2.00;99.90;;;;;;5095278;28;19916;-47
2022/01/08 06:43:56;;;;;;;;;;;1.90;99.90;;;;;;5077085;28;19962;-50
2022/01/08 06:46:21;;;;;;;;;;;2.00;99.90;;;;;;5080432;28;20381;-49
2022/01/08 06:48:46;;;;;;;;;;;2.00;99.90;;;;;;5077428;28;19912;-46
2022/01/08 06:51:12;;;;;;;;;;;1.90;99.90;;;;;;5095470;28;19957;-46
2022/01/08 06:53:37;;;;;;;;;;;2.00;99.90;;;;;;5094719;28;20286;-45
2022/01/08 06:56:04;;;;;;;;;;;2.00;99.90;;;;;;5095116;28;20358;-49
2022/01/08 06:58:29;;;;;;;;;;;2.10;99.90;;;;;;5095453;28;19912;-47
2022/01/08 07:00:55;;;;;;;;;;;2.10;99.90;;;;;;5093622;28;19938;-47
2022/01/08 07:03:21;;;;;;;;;;;2.10;99.90;;;;;;5095012;28;19924;-47
2022/01/08 07:05:46;;;;;;;;;;;2.20;99.90;;;;;;5077479;28;19919;-49
2022/01/08 07:08:12;;;;;;;;;;;2.10;99.90;;;;;;5095640;28;19927;-48
2022/01/08 07:10:37;;;;;;;;;;;2.20;99.90;;;;;;5094855;28;20036;-44
2022/01/08 07:13:03;;;;;;;;;;;2.20;99.90;;;;;;5094928;28;19919;-49
2022/01/08 07:15:28;;;;;;;;;;;2.20;99.90;;;;;;5094451;28;19994;-47
2022/01/08 07:17:54;;;;;;;;;;;2.30;99.90;;;;;;5095086;28;19922;-45
2022/01/08 07:20:19;;;;;;;;;;;2.30;99.90;;;;;;5094456;28;19916;-46
2022/01/08 07:22:45;;;;;;;;;;;2.30;99.90;;;;;;5093935;28;19920;-49
2022/01/08 07:25:11;;;;;;;;;;;2.30;99.90;;;;;;5094526;28;19919;-45
2022/01/08 07:27:36;;;;;;;;;;;2.30;99.90;;;;;;5076473;28;20273;-46
2022/01/08 07:30:06;;;;;;;;;;;2.30;99.90;;;;;;5094405;28;19927;-49
2022/01/08 07:32:32;;;;;;;;;;;2.40;99.90;;;;;;5093681;28;19912;-46
2022/01/08 07:34:57;;;;;;;;;;;2.50;99.90;;;;;;5076223;28;19912;-48
2022/01/08 07:37:23;;;;;;;;;;;2.30;99.90;;;;;;5089833;28;19912;-49
2022/01/08 07:39:48;;;;;;;;;;;2.30;99.90;;;;;;5094234;28;19908;-51
2022/01/08 07:42:14;;;;;;;;;;;2.10;99.90;;;;;;5094687;28;19973;-49
2022/01/08 07:44:39;;;;;;;;;;;2.10;99.90;;;;;;5094691;28;20271;-46
2022/01/08 07:47:05;;;;;;;;;;;2.20;99.90;;;;;;5094713;28;20368;-46
2022/01/08 07:49:31;;;;;;;;;;;2.30;99.90;;;;;;5094600;28;19912;-47
2022/01/08 07:51:56;;;;;;;;;;;2.40;99.90;;;;;;5094626;28;19951;-47
2022/01/08 07:54:22;;;;;;;;;;;2.40;99.90;;;;;;5094564;28;19908;-46
2022/01/08 07:56:48;;;;;;;;;;;2.40;99.90;;;;;;5084508;28;19969;-45
2022/01/08 07:59:13;;;;;;;;;;;2.40;99.90;;;;;;5073860;28;20274;-50
2022/01/08 08:01:38;;;;;;;;;;;2.30;99.90;;;;;;5074220;28;20389;-46
2022/01/08 08:04:04;;;;;;;;;;;2.30;99.90;;;;;;5074258;28;20358;-50
2022/01/08 08:06:32;;;;;;;;;;;2.40;99.90;;;;;;5086416;28;19962;-45
2022/01/08 08:08:57;;;;;;;;;;;2.20;99.90;;;;;;5082609;28;19912;-49
2022/01/08 08:11:23;;;;;;;;;;;2.30;99.90;;;;;;5093645;28;19915;-46
2022/01/08 08:13:48;;;;;;;;;;;2.30;99.90;;;;;;5094320;28;19908;-47
2022/01/08 08:16:14;;;;;;;;;;;2.30;99.90;;;;;;5093801;28;19908;-47
2022/01/08 08:18:39;;;;;;;;;;;2.30;99.90;;;;;;5094154;28;19914;-47
2022/01/08 08:21:05;;;;;;;;;;;2.50;99.90;;;;;;5093818;28;19916;-47
2022/01/08 08:23:30;;;;;;;;;;;2.40;99.90;;;;;;5092123;28;19912;-47
2022/01/08 08:25:56;;;;;;;;;;;2.70;99.90;;;;;;5073832;28;19909;-48
2022/01/08 08:28:21;;;;;;;;;;;2.80;99.90;;;;;;5074061;28;20385;-49
2022/01/08 08:30:47;;;;;;;;;;;2.70;99.90;;;;;;5073941;28;19921;-46
2022/01/08 08:33:12;;;;;;;;;;;2.80;99.90;;;;;;5088737;28;19908;-51
2022/01/08 08:35:38;;;;;;;;;;;2.80;99.90;;;;;;5075682;28;19977;-46
2022/01/08 08:38:03;;;;;;;;;;;2.80;99.90;;;;;;5091935;28;19910;-47
2022/01/08 08:40:29;;;;;;;;;;;2.80;99.90;;;;;;5073467;28;19905;-45
2022/01/08 08:42:54;;;;;;;;;;;3.00;99.90;;;;;;5073624;28;19965;-46
2022/01/08 08:45:20;;;;;;;;;;;3.00;99.90;;;;;;5088945;28;19927;-47
2022/01/08 08:47:46;;;;;;;;;;;2.90;99.90;;;;;;5092772;28;19938;-48
2022/01/08 08:50:12;;;;;;;;;;;2.90;99.90;;;;;;5093350;28;19908;-45
2022/01/08 08:52:38;;;;;;;;;;;2.90;99.90;;;;;;5085732;28;19908;-45
2022/01/08 08:55:05;;;;;;;;;;;2.90;99.90;;;;;;5085499;28;19919;-44
2022/01/08 08:57:31;;;;;;;;;;;2.80;99.90;;;;;;5088817;28;20277;-45
2022/01/08 08:59:56;;;;;;;;;;;2.90;99.90;;;;;;5081446;28;19919;-45
2022/01/08 09:02:22;;;;;;;;;;;3.00;99.90;;;;;;5080384;28;20321;-50
2022/01/08 09:04:49;;;;;;;;;;;3.00;99.90;;;;;;5080955;28;20440;-48
2022/01/08 09:07:15;;;;;;;;;;;3.00;99.90;;;;;;5077152;28;19917;-48
2022/01/08 09:09:41;;;;;;;;;;;2.90;99.90;;;;;;5074675;28;19974;-46
2022/01/08 09:12:06;;;;;;;;;;;2.90;99.90;;;;;;5090193;28;19912;-48
2022/01/08 09:14:32;;;;;;;;;;;2.80;99.90;;;;;;5079360;28;19919;-47
2022/01/08 09:17:02;;;;;;;;;;;2.60;99.90;;;;;;5074294;28;19919;-45
2022/01/08 09:19:27;;;;;;;;;;;2.60;99.90;;;;;;5056772;28;19948;-51
2022/01/08 09:21:53;;;;;;;;;;;2.60;99.90;;;;;;5079767;28;20381;-48
2022/01/08 09:24:18;;;;;;;;;;;2.80;99.90;;;;;;5088043;28;19916;-47
2022/01/08 09:26:44;;;;;;;;;;;2.90;99.90;;;;;;5091784;28;19919;-47
2022/01/08 09:29:10;;;;;;;;;;;3.20;99.90;;;;;;5090028;28;19912;-49
2022/01/08 09:31:37;;;;;;;;;;;3.10;99.90;;;;;;5088362;28;19944;-48
2022/01/08 09:34:02;;;;;;;;;;;3.00;99.90;;;;;;5090170;28;19912;-48
2022/01/08 09:36:28;;;;;;;;;;;3.00;99.90;;;;;;5083266;28;19920;-48
2022/01/08 09:38:54;;;;;;;;;;;3.10;99.90;;;;;;5076752;28;19908;-45
2022/01/08 09:41:19;;;;;;;;;;;2.90;99.90;;;;;;5076740;28;19913;-47
2022/01/08 09:43:45;;;;;;;;;;;2.80;99.90;;;;;;5076466;28;19919;-48
2022/01/08 09:46:11;;;;;;;;;;;2.70;99.90;;;;;;5076435;28;19956;-47
2022/01/08 09:48:36;;;;;;;;;;;2.80;99.90;;;;;;5076426;28;19930;-47
2022/01/08 09:51:02;;;;;;;;;;;2.60;99.90;;;;;;5058441;28;19915;-45
2022/01/08 09:53:28;;;;;;;;;;;2.70;99.90;;;;;;5076333;28;19954;-47
2022/01/08 09:55:53;;;;;;;;;;;2.70;99.90;;;;;;5058333;28;19952;-45
2022/01/08 09:58:19;;;;;;;;;;;2.50;99.90;;;;;;5076284;28;19995;-48
2022/01/08 10:00:45;;;;;;;;;;;2.50;99.90;;;;;;5076186;28;19919;-47
2022/01/08 10:03:24;;;;;;;;;;;2.50;99.90;;;;;;5076804;28;20004;-45
2022/01/08 10:05:51;;;;;;;;;;;2.50;99.90;;;;;;5076272;28;20393;-47
2022/01/08 10:08:22;;;;;;;;;;;2.70;99.90;;;;;;5057919;28;19909;-46
2022/01/08 10:11:14;;;;;;;;;;;2.70;99.90;;;;;;5075800;28;19943;-48
2022/01/08 10:13:41;;;;;;;;;;;2.70;99.90;;;;;;5054844;28;19908;-47
2022/01/08 10:18:55;;;;;;;;;;;2.70;99.90;;;;;;5075843;28;19997;-46
2022/01/08 10:21:22;;;;;;;;;;;2.70;99.90;;;;;;5075955;28;19912;-45
2022/01/08 10:23:50;;;;;;;;;;;2.60;99.90;;;;;;5075945;28;19912;-46
2022/01/08 10:26:17;;;;;;;;;;;2.70;99.90;;;;;;5076270;28;19971;-45
2022/01/08 10:28:50;;;;;;;;;;;2.60;99.90;;;;;;5075931;28;19931;-47
2022/01/08 10:31:29;;;;;;;;;;;2.60;99.90;;;;;;5075440;28;19928;-48
2022/01/08 10:33:54;;;;;;;;;;;2.50;99.90;;;;;;5075526;28;20382;-48
2022/01/08 10:36:24;;;;;;;;;;;2.60;99.90;;;;;;5075418;28;19916;-48
2022/01/08 10:38:51;;;;;;;;;;;2.70;99.90;;;;;;5057356;28;19908;-45
2022/01/08 10:41:17;;;;;;;;;;;2.90;99.90;;;;;;5057322;28;20358;-47
2022/01/08 10:43:44;;;;;;;;;;;2.80;99.90;;;;;;5075644;28;19913;-49
2022/01/08 10:46:17;;;;;;;;;;;2.80;99.90;;;;;;5075527;28;19908;-48
2022/01/08 10:48:44;;;;;;;;;;;2.70;99.90;;;;;;5075522;28;19908;-49
2022/01/08 10:51:23;;;;;;;;;;;2.80;99.90;;;;;;5075052;28;19908;-48
2022/01/08 10:53:57;;;;;;;;;;;3.00;99.90;;;;;;5057068;28;19915;-47
2022/01/08 10:56:26;;;;;;;;;;;3.30;99.90;;;;;;5074861;28;20000;-48
2022/01/08 10:58:55;;;;;;;;;;;3.60;99.90;;;;;;5074658;28;19916;-45
2022/01/08 11:01:36;;;;;;;;;;;3.80;99.90;;;;;;5057096;28;20005;-48
2022/01/08 11:04:02;;;;;;;;;;;3.70;99.90;;;;;;5074781;28;19951;-47
2022/01/08 11:06:27;;;;;;;;;;;3.60;99.90;;;;;;5074661;28;19975;-44
2022/01/08 11:09:02;;;;;;;;;;;3.60;99.90;;;;;;5074700;28;19908;-46
2022/01/08 11:11:30;;;;;;;;;;;3.90;99.90;;;;;;5074885;28;20321;-50
2022/01/08 11:14:06;;;;;;;;;;;4.10;99.90;;;;;;5074647;28;19908;-47
2022/01/08 11:16:32;;;;;;;;;;;3.50;99.90;;;;;;5074737;28;19915;-45
2022/01/08 11:18:58;;;;;;;;;;;3.20;99.90;;;;;;5074233;28;19999;-46
2022/01/08 11:21:26;;;;;;;;;;;3.30;99.90;;;;;;5074044;28;19913;-50
2022/01/08 11:23:51;;;;;;;;;;;3.20;99.90;;;;;;5074429;28;20367;-44
2022/01/08 11:26:17;;;;;;;;;;;3.20;99.90;;;;;;5056468;28;19909;-46
2022/01/08 11:28:44;;;;;;;;;;;3.30;99.90;;;;;;5078671;28;19912;-46
2022/01/08 11:31:11;;;;;;;;;;;3.40;99.90;;;;;;5078864;28;20019;-45
2022/01/08 11:33:42;;;;;;;;;;;3.30;99.90;;;;;;5087836;28;19912;-51
2022/01/08 11:36:08;;;;;;;;;;;3.40;99.90;;;;;;5093183;28;19977;-45
2022/01/08 11:38:34;;;;;;;;;;;3.70;99.90;;;;;;5071260;28;19916;-50
2022/01/08 11:40:59;;;;;;;;;;;3.70;99.90;;;;;;5083756;28;19962;-48
2022/01/08 11:43:26;;;;;;;;;;;3.60;99.90;;;;;;5075330;28;19931;-49
2022/01/08 11:45:53;;;;;;;;;;;3.50;99.90;;;;;;5081759;28;20029;-50
2022/01/08 11:48:21;;;;;;;;;;;3.70;99.90;;;;;;5074700;28;20018;-46
2022/01/08 11:50:57;;;;;;;;;;;3.70;99.90;;;;;;5079932;28;20402;-47
2022/01/08 11:53:22;;;;;;;;;;;3.70;99.90;;;;;;5077248;28;19919;-49
2022/01/08 11:55:52;;;;;;;;;;;3.80;99.90;;;;;;5076294;28;19913;-47
2022/01/08 11:58:34;;;;;;;;;;;3.50;99.90;;;;;;5065586;28;20321;-48
2022/01/08 12:01:13;;;;;;;;;;;3.50;99.90;;;;;;5074857;28;19959;-45
2022/01/08 12:03:39;;;;;;;;;;;3.40;99.90;;;;;;5078516;28;19916;-45
2022/01/08 12:06:20;;;;;;;;;;;3.10;99.90;;;;;;5086208;28;19930;-48
2022/01/08 12:08:52;;;;;;;;;;;3.20;99.90;;;;;;5087996;28;19972;-47
2022/01/08 12:11:17;;;;;;;;;;;3.50;99.90;;;;;;5091944;28;20010;-46
2022/01/08 12:13:47;;;;;;;;;;;3.80;99.90;;;;;;5080613;28;20007;-45
2022/01/08 12:16:31;;;;;;;;;;;3.70;99.90;;;;;;5084027;28;19908;-48
2022/01/08 12:18:57;;;;;;;;;;;3.70;99.90;;;;;;5077034;28;19916;-47
2022/01/08 12:21:32;;;;;;;;;;;3.10;99.90;;;;;;5078725;28;19923;-46
2022/01/08 12:24:01;;;;;;;;;;;2.80;99.90;;;;;;5073995;28;20011;-50
2022/01/08 12:26:26;;;;;;;;;;;3.10;99.90;;;;;;5074965;28;19919;-48
2022/01/08 12:28:53;;;;;;;;;;;3.20;99.90;;;;;;5070846;28;19912;-50
2022/01/08 12:31:24;;;;;;;;;;;3.30;99.90;;;;;;5070222;28;20311;-49
2022/01/08 12:34:16;;;;;;;;;;;3.50;99.90;;;;;;5072221;28;19909;-48
2022/01/08 12:36:51;;;;;;;;;;;3.50;99.90;;;;;;5064306;28;19919;-48
2022/01/08 12:39:17;;;;;;;;;;;3.30;99.90;;;;;;5069934;28;19912;-47
2022/01/08 12:41:42;;;;;;;;;;;3.30;99.90;;;;;;5067893;28;19938;-48
2022/01/08 12:44:24;;;;;;;;;;;3.30;99.90;;;;;;5060843;28;19913;-47
2022/01/08 12:46:50;;;;;;;;;;;3.40;99.90;;;;;;5055953;28;19942;-47
2022/01/08 12:49:15;;;;;;;;;;;3.40;99.90;;;;;;5065975;28;20140;-48
2022/01/08 12:51:44;;;;;;;;;;;3.50;99.90;;;;;;5068182;28;19912;-51
2022/01/08 12:54:09;;;;;;;;;;;3.50;99.90;;;;;;5069174;28;19908;-47
2022/01/08 12:56:35;;;;;;;;;;;3.40;99.90;;;;;;5062819;28;19917;-50
2022/01/08 12:59:02;;;;;;;;;;;3.50;99.90;;;;;;5054896;28;20363;-48
2022/01/08 13:01:28;;;;;;;;;;;3.50;99.90;;;;;;5069475;28;19938;-50
2022/01/08 13:03:55;;;;;;;;;;;3.30;99.90;;;;;;5067911;28;19923;-46
2022/01/08 13:06:22;;;;;;;;;;;3.10;99.90;;;;;;5056803;28;20054;-47
2022/01/08 13:08:49;;;;;;;;;;;3.10;99.90;;;;;;5062589;28;19923;-46
2022/01/08 13:11:23;;;;;;;;;;;3.00;99.90;;;;;;5056481;28;19931;-47
2022/01/08 13:13:50;;;;;;;;;;;3.00;99.90;;;;;;5075410;28;19916;-47
2022/01/08 13:16:20;;;;;;;;;;;2.90;99.90;;;;;;5075433;28;19913;-47
2022/01/08 13:18:50;;;;;;;;;;;2.80;99.90;;;;;;5074796;28;19919;-48
2022/01/08 13:21:15;;;;;;;;;;;2.80;99.90;;;;;;5076274;28;19916;-47
2022/01/08 13:23:42;;;;;;;;;;;2.80;99.90;;;;;;5061659;28;19970;-51
2022/01/08 13:26:07;;;;;;;;;;;2.80;99.90;;;;;;5056857;28;20354;-46
2022/01/08 13:28:33;;;;;;;;;;;2.90;99.90;;;;;;5058321;28;19912;-48
2022/01/08 13:30:58;;;;;;;;;;;2.90;99.90;;;;;;5067882;28;19920;-48
2022/01/08 13:33:26;;;;;;;;;;;3.20;99.90;;;;;;5058322;28;20243;-50
2022/01/08 13:36:02;;;;;;;;;;;3.20;99.90;;;;;;5078565;28;19917;-49
2022/01/08 13:38:30;;;;;;;;;;;3.30;99.90;;;;;;5076068;28;19917;-46
2022/01/08 13:40:56;;;;;;;;;;;3.50;99.90;;;;;;5068533;28;19912;-47
2022/01/08 13:43:21;;;;;;;;;;;3.70;99.90;;;;;;5081862;28;20007;-49
2022/01/08 13:45:51;;;;;;;;;;;3.70;99.90;;;;;;5086022;28;19912;-47
2022/01/08 13:48:19;;;;;;;;;;;3.50;99.90;;;;;;5094497;28;19912;-48
2022/01/08 13:50:48;;;;;;;;;;;3.20;99.90;;;;;;5091554;28;19912;-49
2022/01/08 13:53:14;;;;;;;;;;;3.10;99.90;;;;;;5093290;28;20006;-51
2022/01/08 13:55:43;;;;;;;;;;;3.20;99.90;;;;;;5090875;28;19958;-47
2022/01/08 13:58:15;;;;;;;;;;;3.20;99.90;;;;;;5092944;28;20362;-47
2022/01/08 14:00:42;;;;;;;;;;;3.30;99.90;;;;;;5067659;28;19950;-48
2022/01/08 14:03:17;;;;;;;;;;;3.50;99.90;;;;;;5086304;28;19966;-48
2022/01/08 14:05:43;;;;;;;;;;;3.60;99.90;;;;;;5076253;28;19909;-49
2022/01/08 14:08:09;;;;;;;;;;;3.70;99.90;;;;;;5086060;28;20362;-49
2022/01/08 14:10:36;;;;;;;;;;;3.70;99.90;;;;;;5091855;28;20011;-47
2022/01/08 14:13:01;;;;;;;;;;;3.60;99.90;;;;;;5087857;28;19916;-47
2022/01/08 14:15:27;;;;;;;;;;;3.70;99.90;;;;;;5091985;28;19962;-46
2022/01/08 14:17:52;;;;;;;;;;;3.50;99.90;;;;;;5087610;28;19912;-47
2022/01/08 14:20:21;;;;;;;;;;;3.50;99.90;;;;;;5082866;28;19912;-48
2022/01/08 14:22:47;;;;;;;;;;;3.80;99.90;;;;;;5083682;28;19968;-45
2022/01/08 14:25:19;;;;;;;;;;;3.80;99.90;;;;;;5090754;28;20378;-49
2022/01/08 14:27:45;;;;;;;;;;;3.70;99.90;;;;;;5095964;28;19912;-49
2022/01/08 14:30:12;;;;;;;;;;;3.50;99.90;;;;;;5086039;28;20300;-49
2022/01/08 14:32:38;;;;;;;;;;;3.50;99.90;;;;;;5077737;28;19912;-49
2022/01/08 14:35:04;;;;;;;;;;;3.30;99.90;;;;;;5077418;28;19939;-48
2022/01/08 14:37:33;;;;;;;;;;;3.20;99.90;;;;;;5080186;28;20433;-51
2022/01/08 14:40:18;;;;;;;;;;;3.20;99.90;;;;;;5076053;28;20036;-49
2022/01/08 14:42:44;;;;;;;;;;;3.10;99.90;;;;;;5087840;28;19962;-50
2022/01/08 14:45:15;;;;;;;;;;;3.20;99.90;;;;;;5085266;28;19917;-51
2022/01/08 14:47:42;;;;;;;;;;;3.30;99.90;;;;;;5086065;28;19912;-50
2022/01/08 14:50:09;;;;;;;;;;;3.40;99.90;;;;;;5084033;28;20031;-49
2022/01/08 14:52:35;;;;;;;;;;;3.30;99.90;;;;;;5058722;28;19920;-48
2022/01/08 14:55:02;;;;;;;;;;;3.40;99.90;;;;;;5088905;28;19962;-49
2022/01/08 14:57:28;;;;;;;;;;;3.90;99.90;;;;;;5074793;28;19909;-47